Terminal Aerodrome Forecast
Issued by NWS Wilmington, OH

Current Version | Previous Version | Text Only | Print | Product List | Glossary Off
Versions: 1 2 3 4 5 6 7 8 9 10 11 12 13 14 15 16 17 18 19 20 21 22 23 24 25 26 27

645
FTUS41 KILN 170920 AAB
TAFILN
TAF AMD
KILN 170920Z 1709/1806 19011G18KT P6SM -SHRA OVC015
      TEMPO 1709/1713 3SM -SHRA BR OVC009
     FM171300 20012G18KT 5SM -SHRA BR OVC011
     FM171600 23014G22KT P6SM OVC013
     FM171800 25014G22KT P6SM OVC025
     FM180100 26012G18KT P6SM OVC008=

USA.gov is the U.S. government's official web portal to all federal, state and local government web resources and services.